createdAt,value
2018-07-13T00:00:06.139Z,0
2018-07-13T00:01:06.131Z,0
2018-07-13T00:02:05.894Z,0
2018-07-13T00:03:06.929Z,0
2018-07-13T00:04:06.376Z,0
2018-07-13T00:05:06.148Z,0
2018-07-13T00:06:05.879Z,0
2018-07-13T00:07:06.399Z,0
2018-07-13T00:08:06.122Z,0
2018-07-13T00:09:06.397Z,0
2018-07-13T00:10:06.135Z,0
2018-07-13T00:11:06.149Z,0
2018-07-13T00:12:05.890Z,0
2018-07-13T00:13:06.374Z,0
2018-07-13T00:14:06.389Z,0
2018-07-13T00:15:05.895Z,0
2018-07-13T00:16:06.149Z,0
2018-07-13T00:17:06.134Z,0
2018-07-13T00:18:06.136Z,0
2018-07-13T00:19:05.893Z,0
2018-07-13T00:20:06.154Z,0
2018-07-13T00:21:05.896Z,0
2018-07-13T00:22:05.702Z,0
2018-07-13T00:23:06.390Z,0
2018-07-13T00:24:06.150Z,0
2018-07-13T00:25:06.147Z,0
2018-07-13T00:26:06.139Z,0
2018-07-13T00:27:05.901Z,0
2018-07-13T00:28:06.127Z,0
2018-07-13T00:29:06.125Z,0
2018-07-13T00:30:06.132Z,0
2018-07-13T00:31:06.132Z,0
2018-07-13T00:32:05.881Z,0
2018-07-13T00:33:05.631Z,0
2018-07-13T00:34:06.136Z,0
2018-07-13T00:35:06.145Z,0
2018-07-13T00:36:05.890Z,0
2018-07-13T00:37:06.137Z,0
2018-07-13T00:38:06.139Z,0
2018-07-13T00:39:05.905Z,0
2018-07-13T00:40:05.654Z,0
2018-07-13T00:41:06.126Z,0
2018-07-13T00:42:06.144Z,0
2018-07-13T00:43:05.877Z,0
2018-07-13T00:44:08.246Z,0
2018-07-13T00:45:05.889Z,0
2018-07-13T00:46:06.139Z,0
2018-07-13T00:47:06.390Z,0
2018-07-13T00:48:06.135Z,0
2018-07-13T00:49:06.128Z,0
2018-07-13T00:50:05.895Z,0
2018-07-13T00:51:06.191Z,0
2018-07-13T00:52:05.899Z,0
2018-07-13T00:53:06.154Z,0
2018-07-13T00:54:06.168Z,0
2018-07-13T00:55:05.876Z,0
2018-07-13T00:56:06.108Z,0
2018-07-13T00:57:06.463Z,0
2018-07-13T00:58:06.150Z,0
2018-07-13T00:59:06.698Z,0
2018-07-13T01:00:06.149Z,0
2018-07-13T01:01:06.167Z,0
2018-07-13T01:02:06.147Z,0
2018-07-13T01:03:05.925Z,0
2018-07-13T01:04:06.156Z,0
2018-07-13T01:05:05.894Z,0
2018-07-13T01:06:05.640Z,0
2018-07-13T01:07:06.392Z,0
2018-07-13T01:08:05.891Z,0
2018-07-13T01:09:06.172Z,0
2018-07-13T01:10:06.167Z,0
2018-07-13T01:11:06.180Z,0
2018-07-13T01:12:06.149Z,0
2018-07-13T01:13:05.905Z,0
2018-07-13T01:14:06.394Z,0
2018-07-13T01:15:06.417Z,0
2018-07-13T01:16:06.156Z,0
2018-07-13T01:17:06.151Z,0
2018-07-13T01:18:06.146Z,0
2018-07-13T01:19:06.435Z,0
2018-07-13T01:20:06.198Z,0
2018-07-13T01:21:05.948Z,0
2018-07-13T01:22:06.410Z,0
2018-07-13T01:23:06.162Z,0
2018-07-13T01:24:05.904Z,0
2018-07-13T01:25:06.152Z,0
2018-07-13T01:26:06.152Z,0
2018-07-13T01:27:06.161Z,0
2018-07-13T01:28:05.904Z,0
2018-07-13T01:29:06.137Z,0
2018-07-13T01:30:06.158Z,0
2018-07-13T01:31:06.432Z,0
2018-07-13T01:32:06.408Z,0
2018-07-13T01:33:06.147Z,0
2018-07-13T01:34:05.632Z,0
2018-07-13T01:35:06.151Z,0
2018-07-13T01:36:06.395Z,0
2018-07-13T01:37:05.883Z,0
2018-07-13T01:38:06.138Z,0
2018-07-13T01:39:06.418Z,0
2018-07-13T01:40:06.167Z,0
2018-07-13T01:41:05.902Z,0
2018-07-13T01:42:06.137Z,0
2018-07-13T01:43:05.890Z,0
2018-07-13T01:44:06.379Z,0
2018-07-13T01:45:06.127Z,0
2018-07-13T01:46:05.882Z,0
2018-07-13T01:47:06.133Z,0
2018-07-13T01:48:06.138Z,0
2018-07-13T01:49:05.882Z,0
2018-07-13T01:50:06.160Z,0
2018-07-13T01:51:06.147Z,0
2018-07-13T01:52:06.154Z,0
2018-07-13T01:53:05.890Z,0
2018-07-13T01:54:05.881Z,0
2018-07-13T01:55:06.135Z,0
2018-07-13T01:56:05.892Z,0
2018-07-13T01:57:06.139Z,0
2018-07-13T01:58:06.398Z,0
2018-07-13T01:59:06.140Z,0
2018-07-13T02:00:06.157Z,0
2018-07-13T02:01:05.890Z,0
2018-07-13T02:02:05.886Z,0
2018-07-13T02:03:06.126Z,0
2018-07-13T02:04:06.127Z,0
2018-07-13T02:05:06.380Z,0
2018-07-13T02:06:06.136Z,0
2018-07-13T02:07:05.893Z,0
2018-07-13T02:08:06.151Z,0
2018-07-13T02:09:06.121Z,0
2018-07-13T02:10:06.117Z,0
2018-07-13T02:11:06.396Z,0
2018-07-13T02:12:06.371Z,0
2018-07-13T02:13:05.867Z,0
2018-07-13T02:14:06.117Z,0
2018-07-13T02:15:06.140Z,0
2018-07-13T02:16:06.386Z,0
2018-07-13T02:17:06.149Z,0
2018-07-13T02:18:05.872Z,0
2018-07-13T02:19:06.391Z,0
2018-07-13T02:20:05.891Z,0
2018-07-13T02:21:06.400Z,0
2018-07-13T02:22:06.111Z,0
2018-07-13T02:23:06.185Z,0
2018-07-13T02:24:06.128Z,0
2018-07-13T02:25:05.861Z,0
2018-07-13T02:26:06.151Z,0
2018-07-13T02:27:06.124Z,0
2018-07-13T02:28:06.119Z,0
2018-07-13T02:29:06.365Z,0
2018-07-13T02:30:06.520Z,0
2018-07-13T02:31:06.116Z,0
2018-07-13T02:32:06.137Z,0
2018-07-13T02:33:06.110Z,0
2018-07-13T02:34:06.655Z,0
2018-07-13T02:35:06.177Z,0
2018-07-13T02:36:06.110Z,0
2018-07-13T02:37:06.166Z,0
2018-07-13T02:38:05.871Z,0
2018-07-13T02:39:05.997Z,0
2018-07-13T02:40:05.650Z,0
2018-07-13T02:41:05.874Z,0
2018-07-13T02:42:05.859Z,0
2018-07-13T02:43:05.849Z,0
2018-07-13T02:44:06.140Z,0
2018-07-13T02:45:06.123Z,0
2018-07-13T02:46:05.852Z,0
2018-07-13T02:47:06.397Z,0
2018-07-13T02:48:06.387Z,4
2018-07-13T02:49:05.847Z,4
2018-07-13T02:50:06.129Z,4
2018-07-13T02:51:06.107Z,4
2018-07-13T02:52:06.372Z,0
2018-07-13T02:53:05.869Z,0
2018-07-13T02:54:06.108Z,4
2018-07-13T02:55:06.106Z,4
2018-07-13T02:56:06.133Z,4
2018-07-13T02:57:06.364Z,4
2018-07-13T02:58:06.371Z,4
2018-07-13T02:59:05.831Z,4
2018-07-13T03:00:06.089Z,8
2018-07-13T03:01:06.093Z,8
2018-07-13T03:02:06.089Z,8
2018-07-13T03:03:05.616Z,12
2018-07-13T03:04:06.103Z,8
2018-07-13T03:05:06.103Z,12
2018-07-13T03:06:05.851Z,16
2018-07-13T03:07:05.850Z,16
2018-07-13T03:08:05.849Z,16
2018-07-13T03:09:06.348Z,20
2018-07-13T03:10:06.366Z,24
2018-07-13T03:11:05.845Z,24
2018-07-13T03:12:06.091Z,32
2018-07-13T03:13:06.357Z,32
2018-07-13T03:14:06.347Z,40
2018-07-13T03:15:06.389Z,44
2018-07-13T03:16:05.832Z,48
2018-07-13T03:17:05.817Z,56
2018-07-13T03:18:05.837Z,64
2018-07-13T03:19:06.093Z,68
2018-07-13T03:20:06.087Z,76
2018-07-13T03:21:05.918Z,84
2018-07-13T03:22:05.904Z,96
2018-07-13T03:23:06.362Z,108
2018-07-13T03:24:05.844Z,116
2018-07-13T03:25:06.386Z,132
2018-07-13T03:26:05.850Z,144
2018-07-13T03:27:05.837Z,156
2018-07-13T03:28:06.381Z,172
2018-07-13T03:29:06.331Z,188
2018-07-13T03:30:06.096Z,204
2018-07-13T03:31:05.835Z,220
2018-07-13T03:32:06.365Z,240
2018-07-13T03:33:05.823Z,260
2018-07-13T03:34:06.072Z,284
2018-07-13T03:35:06.095Z,304
2018-07-13T03:36:06.094Z,324
2018-07-13T03:37:06.072Z,348
2018-07-13T03:38:07.089Z,372
2018-07-13T03:39:06.085Z,396
2018-07-13T03:40:06.076Z,424
2018-07-13T03:41:06.328Z,448
2018-07-13T03:42:06.374Z,476
2018-07-13T03:43:06.070Z,504
2018-07-13T03:44:06.506Z,528
2018-07-13T03:45:06.090Z,560
2018-07-13T03:46:06.076Z,588
2018-07-13T03:47:05.872Z,620
2018-07-13T03:48:05.836Z,652
2018-07-13T03:49:06.054Z,684
2018-07-13T03:50:06.077Z,720
2018-07-13T03:51:05.809Z,752
2018-07-13T03:52:06.071Z,788
2018-07-13T03:53:06.327Z,828
2018-07-13T03:54:06.148Z,860
2018-07-13T03:55:06.047Z,904
2018-07-13T03:56:06.061Z,940
2018-07-13T03:57:06.061Z,984
2018-07-13T03:58:06.073Z,1028
2018-07-13T03:59:05.806Z,1076
2018-07-13T04:00:06.045Z,1128
2018-07-13T04:01:06.108Z,1176
2018-07-13T04:02:05.803Z,1232
2018-07-13T04:03:06.031Z,1284
2018-07-13T04:04:06.311Z,1384
2018-07-13T04:05:06.313Z,1596
2018-07-13T04:06:06.040Z,1844
2018-07-13T04:07:06.242Z,2032
2018-07-13T04:08:05.825Z,2144
2018-07-13T04:09:06.125Z,2252
2018-07-13T04:10:05.782Z,2372
2018-07-13T04:11:06.047Z,2484
2018-07-13T04:12:05.818Z,2468
2018-07-13T04:13:05.790Z,2464
2018-07-13T04:14:06.047Z,2660
2018-07-13T04:15:06.120Z,2932
2018-07-13T04:16:05.532Z,3136
2018-07-13T04:17:06.317Z,3296
2018-07-13T04:18:06.052Z,3432
2018-07-13T04:19:05.540Z,3580
2018-07-13T04:20:05.815Z,3772
2018-07-13T04:21:06.023Z,3944
2018-07-13T04:22:06.048Z,4120
2018-07-13T04:23:06.035Z,4328
2018-07-13T04:24:06.034Z,4468
2018-07-13T04:25:06.061Z,4676
2018-07-13T04:26:06.053Z,4892
2018-07-13T04:27:06.043Z,5056
2018-07-13T04:28:06.040Z,5240
2018-07-13T04:29:06.334Z,5424
2018-07-13T04:30:05.804Z,5576
2018-07-13T04:31:06.036Z,5756
2018-07-13T04:32:06.039Z,5924
2018-07-13T04:33:06.052Z,6068
2018-07-13T04:34:05.817Z,6244
2018-07-13T04:35:06.042Z,6440
2018-07-13T04:36:06.315Z,6616
2018-07-13T04:37:05.806Z,6804
2018-07-13T04:38:06.069Z,6956
2018-07-13T04:39:06.320Z,7128
2018-07-13T04:40:06.043Z,7280
2018-07-13T04:41:06.268Z,7436
2018-07-13T04:42:06.340Z,7584
2018-07-13T04:43:06.065Z,7752
2018-07-13T04:44:06.340Z,7936
2018-07-13T04:45:06.326Z,8100
2018-07-13T04:46:06.322Z,8264
2018-07-13T04:47:06.067Z,8396
2018-07-13T04:48:06.070Z,8508
2018-07-13T04:49:06.073Z,8612
2018-07-13T04:50:06.130Z,8776
2018-07-13T04:51:05.570Z,8916
2018-07-13T04:52:06.059Z,9040
2018-07-13T04:53:05.809Z,9168
2018-07-13T04:54:06.326Z,9256
2018-07-13T04:55:05.826Z,9348
2018-07-13T04:56:06.350Z,9484
2018-07-13T04:57:06.344Z,9584
2018-07-13T04:58:05.826Z,9668
2018-07-13T04:59:06.074Z,9772
2018-07-13T05:00:05.844Z,9848
2018-07-13T05:01:05.846Z,10016
2018-07-13T05:02:06.116Z,10168
2018-07-13T05:03:06.395Z,10296
2018-07-13T05:04:06.118Z,10476
2018-07-13T05:05:06.391Z,10664
2018-07-13T05:06:06.126Z,10760
2018-07-13T05:07:06.126Z,10744
2018-07-13T05:08:06.127Z,10788
2018-07-13T05:09:06.145Z,11008
2018-07-13T05:10:05.882Z,11088
2018-07-13T05:11:06.411Z,11160
2018-07-13T05:12:06.420Z,11236
2018-07-13T05:13:05.894Z,11296
2018-07-13T05:14:06.149Z,11356
2018-07-13T05:15:06.697Z,11508
2018-07-13T05:16:05.907Z,11548
2018-07-13T05:17:05.661Z,11656
2018-07-13T05:18:06.448Z,11672
2018-07-13T05:19:06.186Z,11804
2018-07-13T05:20:05.926Z,11912
2018-07-13T05:21:06.453Z,11892
2018-07-13T05:22:06.181Z,12092
2018-07-13T05:23:06.444Z,12184
2018-07-13T05:24:06.443Z,12268
2018-07-13T05:25:06.223Z,12356
2018-07-13T05:26:05.957Z,12412
2018-07-13T05:27:05.980Z,12460
2018-07-13T05:28:05.956Z,12536
2018-07-13T05:29:06.481Z,12572
2018-07-13T05:30:06.238Z,12644
2018-07-13T05:31:06.240Z,12696
2018-07-13T05:32:05.978Z,12704
2018-07-13T05:33:05.980Z,12764
2018-07-13T05:34:05.996Z,12868
2018-07-13T05:35:06.248Z,12916
2018-07-13T05:36:06.523Z,13048
2018-07-13T05:37:06.283Z,13124
2018-07-13T05:38:06.263Z,13184
2018-07-13T05:39:06.328Z,13128
2018-07-13T05:40:06.521Z,13252
2018-07-13T05:41:06.308Z,13276
2018-07-13T05:42:06.064Z,13288
2018-07-13T05:43:06.542Z,13308
2018-07-13T05:44:06.559Z,13296
2018-07-13T05:45:06.827Z,13392
2018-07-13T05:46:06.051Z,13428
2018-07-13T05:47:06.068Z,13512
2018-07-13T05:48:06.324Z,13516
2018-07-13T05:49:06.340Z,13644
2018-07-13T05:50:06.368Z,13692
2018-07-13T05:51:06.083Z,13728
2018-07-13T05:52:06.369Z,13816
2018-07-13T05:53:06.330Z,13868
2018-07-13T05:54:06.375Z,13932
2018-07-13T05:55:06.377Z,13964
2018-07-13T05:56:05.874Z,14024
2018-07-13T05:57:06.138Z,13988
2018-07-13T05:58:06.141Z,14116
2018-07-13T05:59:06.393Z,14124
2018-07-13T06:00:06.663Z,14192
2018-07-13T06:01:06.152Z,14240
2018-07-13T06:02:06.435Z,14328
2018-07-13T06:03:05.910Z,14388
2018-07-13T06:04:05.920Z,14416
2018-07-13T06:05:06.177Z,14456
2018-07-13T06:06:06.174Z,14488
2018-07-13T06:07:06.707Z,14520
2018-07-13T06:08:06.453Z,14532
2018-07-13T06:09:06.200Z,14592
2018-07-13T06:10:05.983Z,14672
2018-07-13T06:11:06.497Z,14704
2018-07-13T06:12:06.736Z,14664
2018-07-13T06:13:06.509Z,14732
2018-07-13T06:14:06.239Z,14752
2018-07-13T06:23:50.321Z,15024
2018-07-13T06:24:50.571Z,15064
2018-07-13T06:25:50.632Z,15100
2018-07-13T06:26:50.583Z,15120
2018-07-13T06:27:50.606Z,15100
2018-07-13T06:28:50.857Z,15140
2018-07-13T06:29:50.597Z,15180
2018-07-13T06:30:50.166Z,15188
2018-07-13T06:31:50.357Z,15204
2018-07-13T06:32:50.381Z,15164
2018-07-13T06:33:50.614Z,15176
2018-07-13T06:34:50.385Z,15184
2018-07-13T06:35:50.635Z,15164
2018-07-13T06:36:50.661Z,15120
2018-07-13T06:37:50.657Z,15068
2018-07-13T06:38:50.403Z,15004
2018-07-13T06:39:50.662Z,13456
2018-07-13T06:40:50.694Z,13028
2018-07-13T06:41:50.422Z,15332
2018-07-13T06:42:50.174Z,15308
2018-07-13T06:43:50.443Z,15332
2018-07-13T06:44:51.237Z,15296
2018-07-13T06:45:50.789Z,15264
2018-07-13T06:46:50.984Z,15256
2018-07-13T06:47:51.008Z,15344
2018-07-13T06:48:50.466Z,15068
2018-07-13T06:49:50.473Z,15084
2018-07-13T06:50:51.002Z,15172
2018-07-13T06:51:50.762Z,15120
2018-07-13T06:52:50.772Z,15092
2018-07-13T06:53:50.519Z,15080
2018-07-13T06:54:51.018Z,15080
2018-07-13T06:55:50.864Z,15056
2018-07-13T06:56:50.963Z,15064
2018-07-13T06:57:50.280Z,15076
2018-07-13T06:58:50.565Z,15028
2018-07-13T06:59:51.055Z,15004
2018-07-13T07:00:50.861Z,14964
2018-07-13T07:01:51.083Z,14896
2018-07-13T07:02:50.831Z,14816
2018-07-13T07:03:50.839Z,14644
2018-07-13T07:04:51.102Z,14504
2018-07-13T07:05:50.859Z,14308
2018-07-13T07:06:50.872Z,13944
2018-07-13T07:07:50.729Z,13564
2018-07-13T07:08:50.888Z,13220
2018-07-13T07:09:50.893Z,13064
2018-07-13T07:10:51.247Z,13084
2018-07-13T07:11:50.915Z,13128
2018-07-13T07:12:50.663Z,12996
2018-07-13T07:13:50.936Z,12860
2018-07-13T07:14:50.930Z,12860
2018-07-13T07:15:50.963Z,12900
2018-07-13T07:16:50.943Z,12804
2018-07-13T07:17:51.542Z,12796
2018-07-13T07:18:51.220Z,12896
2018-07-13T07:19:50.960Z,13348
2018-07-13T07:20:50.725Z,13880
2018-07-13T07:21:50.739Z,14184
2018-07-13T07:22:50.732Z,14204
2018-07-13T07:23:51.262Z,14296
2018-07-13T07:24:51.007Z,14296
2018-07-13T07:25:51.052Z,14260
2018-07-13T07:26:51.008Z,14328
2018-07-13T07:27:51.024Z,14312
2018-07-13T07:28:51.035Z,14276
2018-07-13T07:29:51.289Z,14264
2018-07-13T07:30:51.053Z,14220
2018-07-13T07:31:50.561Z,14240
2018-07-13T07:32:51.331Z,14232
2018-07-13T07:33:50.826Z,14172
2018-07-13T07:34:51.072Z,14048
2018-07-13T07:35:51.102Z,13916
2018-07-13T07:36:51.345Z,13908
2018-07-13T07:37:51.419Z,14108
2018-07-13T07:38:50.955Z,14352
2018-07-13T07:39:51.362Z,14416
2018-07-13T07:40:51.167Z,14476
2018-07-13T07:41:51.125Z,14484
2018-07-13T07:42:51.380Z,14480
2018-07-13T07:43:51.493Z,14464
2018-07-13T07:44:51.172Z,14372
2018-07-13T07:45:51.215Z,14348
2018-07-13T07:46:51.183Z,14368
2018-07-13T07:47:51.442Z,14392
2018-07-13T07:48:51.216Z,14352
2018-07-13T07:49:51.458Z,14324
2018-07-13T07:50:51.020Z,14340
2018-07-13T07:51:50.967Z,14296
2018-07-13T07:52:50.980Z,14292
2018-07-13T07:53:51.243Z,14304
2018-07-13T07:54:51.499Z,14264
2018-07-13T07:55:51.024Z,14180
2018-07-13T07:56:51.008Z,14144
2018-07-13T07:57:51.257Z,14120
2018-07-13T07:58:51.288Z,14108
2018-07-13T07:59:51.039Z,14096
2018-07-13T08:00:51.312Z,14088
2018-07-13T08:01:51.584Z,14052
2018-07-13T08:02:51.404Z,14000
2018-07-13T08:03:51.597Z,13988
2018-07-13T08:04:51.628Z,13964
2018-07-13T08:05:51.455Z,13916
2018-07-13T08:06:52.562Z,13908
2018-07-13T08:07:51.625Z,13864
2018-07-13T08:08:51.640Z,13784
2018-07-13T08:09:51.376Z,13764
2018-07-13T08:10:51.676Z,13724
2018-07-13T08:11:51.162Z,13656
2018-07-13T08:12:51.454Z,13592
2018-07-13T08:13:51.430Z,13572
2018-07-13T08:14:51.180Z,13504
2018-07-13T08:15:51.733Z,13536
2018-07-13T08:16:51.216Z,13500
2018-07-13T08:17:51.469Z,13448
2018-07-13T08:18:51.463Z,13444
2018-07-13T08:19:51.796Z,13340
2018-07-13T08:20:51.033Z,13192
2018-07-13T08:21:51.491Z,13100
2018-07-13T08:22:51.493Z,13004
2018-07-13T08:23:51.510Z,12928
2018-07-13T08:24:51.514Z,12852
2018-07-13T08:25:51.523Z,12808
2018-07-13T08:26:51.827Z,12700
2018-07-13T08:27:51.290Z,12620
2018-07-13T08:28:51.564Z,12564
2018-07-13T08:29:51.564Z,12368
2018-07-13T08:30:51.570Z,12308
2018-07-13T08:31:51.578Z,12220
2018-07-13T08:32:51.334Z,12160
2018-07-13T08:33:51.864Z,12116
2018-07-13T08:34:51.607Z,12028
2018-07-13T08:35:51.623Z,11968
2018-07-13T08:36:51.624Z,11908
2018-07-13T08:37:52.171Z,11868
2018-07-13T08:38:51.645Z,11808
2018-07-13T08:39:51.930Z,11780
2018-07-13T08:40:51.258Z,11748
2018-07-13T08:41:51.168Z,11684
2018-07-13T08:42:51.686Z,11616
2018-07-13T08:43:51.471Z,11540
2018-07-13T08:44:51.699Z,11512
2018-07-13T08:45:52.289Z,11484
2018-07-13T08:46:51.738Z,11404
2018-07-13T08:47:51.738Z,11372
2018-07-13T08:48:51.736Z,11308
2018-07-13T08:49:51.489Z,11268
2018-07-13T08:50:52.096Z,11176
2018-07-13T08:51:52.440Z,11068
2018-07-13T08:52:51.263Z,11008
2018-07-13T08:53:51.591Z,10940
2018-07-13T08:54:51.538Z,10880
2018-07-13T08:55:51.893Z,10808
2018-07-13T08:56:51.825Z,10776
2018-07-13T08:57:51.828Z,10696
2018-07-13T08:58:51.817Z,10680
2018-07-13T08:59:52.381Z,10668
2018-07-13T09:00:51.929Z,10632
2018-07-13T09:01:52.408Z,10624
2018-07-13T09:02:52.133Z,10596
2018-07-13T09:03:51.625Z,10612
2018-07-13T09:04:52.070Z,10584
2018-07-13T09:05:52.108Z,10588
2018-07-13T09:06:51.668Z,10568
2018-07-13T09:07:51.636Z,10552
2018-07-13T09:08:51.670Z,10528
2018-07-13T09:09:51.929Z,10476
2018-07-13T09:10:52.543Z,10460
2018-07-13T09:11:51.866Z,10436
2018-07-13T09:12:52.044Z,10428
2018-07-13T09:13:51.965Z,10400
2018-07-13T09:14:51.706Z,10368
2018-07-13T09:15:51.974Z,10320
2018-07-13T09:16:51.977Z,10284
2018-07-13T09:17:52.239Z,10276
2018-07-13T09:18:51.991Z,10252
2018-07-13T09:19:51.753Z,10228
2018-07-13T09:20:52.255Z,10204
2018-07-13T09:21:51.759Z,10268
2018-07-13T09:22:52.283Z,10268
2018-07-13T09:23:52.292Z,10220
2018-07-13T09:24:51.773Z,10224
2018-07-13T09:25:52.043Z,10208
2018-07-13T09:26:51.808Z,10224
2018-07-13T09:27:51.835Z,10244
2018-07-13T09:28:51.804Z,10264
2018-07-13T09:29:52.101Z,10284
2018-07-13T09:30:52.182Z,10284
2018-07-13T09:31:52.105Z,10312
2018-07-13T09:32:51.836Z,10308
2018-07-13T09:33:52.427Z,10324
2018-07-13T09:34:51.842Z,10328
2018-07-13T09:35:52.164Z,10344
2018-07-13T09:36:52.106Z,10356
2018-07-13T09:37:52.420Z,10348
2018-07-13T09:38:52.360Z,10348
2018-07-13T09:39:52.127Z,10332
2018-07-13T09:40:52.123Z,10320
2018-07-13T09:41:52.384Z,10324
2018-07-13T09:42:52.397Z,10332
2018-07-13T09:43:52.157Z,10348
2018-07-13T09:44:52.157Z,10360
2018-07-13T09:45:52.176Z,10360
2018-07-13T09:46:52.597Z,10340
2018-07-13T09:47:52.158Z,10324
2018-07-13T09:48:52.402Z,10324
2018-07-13T09:49:52.164Z,10360
2018-07-13T09:50:52.278Z,10392
2018-07-13T09:51:52.461Z,10412
2018-07-13T09:52:51.946Z,10400
2018-07-13T09:53:52.756Z,10380
2018-07-13T09:54:52.461Z,10380
2018-07-13T09:55:52.553Z,10348
2018-07-13T09:56:51.712Z,10296
2018-07-13T09:57:52.484Z,10260
2018-07-13T09:58:52.218Z,10256
2018-07-13T09:59:52.242Z,10268
2018-07-13T10:00:52.806Z,10328
2018-07-13T10:01:52.250Z,10312
2018-07-13T10:02:52.496Z,10224
2018-07-13T10:03:51.990Z,10156
2018-07-13T10:04:52.010Z,10108
2018-07-13T10:05:52.537Z,10068
2018-07-13T10:06:52.522Z,10060
2018-07-13T10:07:52.532Z,10032
2018-07-13T10:08:52.521Z,9992
2018-07-13T10:09:52.527Z,9984
2018-07-13T10:10:52.577Z,9940
2018-07-13T10:11:52.529Z,9908
2018-07-13T10:12:52.559Z,9888
2018-07-13T10:13:52.301Z,9908
2018-07-13T10:14:52.059Z,9876
2018-07-13T10:15:52.685Z,9856
2018-07-13T10:16:52.313Z,9808
2018-07-13T10:17:52.578Z,9880
2018-07-13T10:18:52.592Z,9884
2018-07-13T10:19:52.591Z,9808
2018-07-13T10:20:52.624Z,9776
2018-07-13T10:21:52.572Z,9848
2018-07-13T10:22:52.612Z,9808
2018-07-13T10:54:18.862Z,9248
2018-07-13T10:55:18.634Z,9212
2018-07-13T10:56:18.844Z,9160
2018-07-13T10:57:18.815Z,9148
2018-07-13T10:58:18.333Z,9120
2018-07-13T10:59:19.076Z,9068
2018-07-13T11:00:18.867Z,9008
2018-07-13T11:01:18.596Z,8968
2018-07-13T11:02:19.097Z,8940
2018-07-13T11:03:18.338Z,8948
2018-07-13T11:04:18.353Z,8932
2018-07-13T11:05:18.844Z,8908
2018-07-13T11:06:18.878Z,8892
2018-07-13T11:07:18.844Z,8884
2018-07-13T11:08:18.868Z,8896
2018-07-13T11:09:18.871Z,8936
2018-07-13T11:10:18.876Z,9016
2018-07-13T11:11:18.627Z,9100
2018-07-13T11:12:18.901Z,9232
2018-07-13T11:13:18.663Z,9276
2018-07-13T11:14:18.658Z,9336
2018-07-13T11:15:18.920Z,9360
2018-07-13T11:16:19.155Z,9368
2018-07-13T11:17:19.195Z,9352
2018-07-13T11:18:18.952Z,9404
2018-07-13T11:19:18.953Z,9436
2018-07-13T11:20:18.918Z,9392
2018-07-13T11:21:18.678Z,9356
2018-07-13T11:22:18.680Z,9468
2018-07-13T11:23:19.204Z,9468
2018-07-13T11:24:19.466Z,9108
2018-07-13T11:25:18.948Z,7036
2018-07-13T11:26:19.222Z,7128
2018-07-13T11:27:19.213Z,6960
2018-07-13T11:28:18.966Z,6740
2018-07-13T11:29:18.727Z,6532
2018-07-13T11:30:19.239Z,6496
2018-07-13T11:31:18.985Z,6472
2018-07-13T11:32:19.299Z,6376
2018-07-13T11:33:19.074Z,6388
2018-07-13T11:34:19.002Z,6492
2018-07-13T11:35:19.005Z,6516
2018-07-13T11:36:19.037Z,7584
2018-07-13T11:37:20.224Z,7372
2018-07-13T11:38:19.275Z,6780
2018-07-13T11:39:18.777Z,8728
2018-07-13T11:40:19.295Z,8912
2018-07-13T11:41:19.040Z,8832
2018-07-13T11:42:18.539Z,8812
2018-07-13T11:43:19.051Z,8808
2018-07-13T11:44:20.495Z,8676
2018-07-13T11:45:19.316Z,8704
2018-07-13T11:46:19.317Z,8760
2018-07-13T11:47:19.071Z,8800
2018-07-13T11:48:19.338Z,8856
2018-07-13T11:49:19.093Z,8872
2018-07-13T11:50:19.097Z,8824
2018-07-13T11:51:18.835Z,8828
2018-07-13T11:52:18.942Z,8928
2018-07-13T11:53:19.098Z,9020
2018-07-13T11:54:19.103Z,9024
2018-07-13T11:55:19.374Z,9036
2018-07-13T11:56:19.154Z,9112
2018-07-13T11:57:18.882Z,9188
2018-07-13T11:58:19.386Z,9312
2018-07-13T11:59:19.147Z,9404
2018-07-13T12:00:19.149Z,9476
2018-07-13T12:01:19.141Z,9428
2018-07-13T12:02:19.167Z,9308
2018-07-13T12:03:19.446Z,9212
2018-07-13T12:04:19.167Z,9236
2018-07-13T12:05:18.927Z,9388
2018-07-13T12:06:19.180Z,9416
2018-07-13T12:07:19.213Z,9332
2018-07-13T12:08:18.946Z,9212
2018-07-13T12:09:19.447Z,9072
2018-07-13T12:10:19.235Z,8900
2018-07-13T12:11:19.209Z,8632
2018-07-13T12:12:19.213Z,8520
2018-07-13T12:13:19.486Z,8368
2018-07-13T12:14:19.071Z,8228
2018-07-13T12:15:19.505Z,8088
2018-07-13T12:16:19.512Z,8060
2018-07-13T12:17:19.244Z,8028
2018-07-13T12:18:19.263Z,8012
2018-07-13T12:19:19.004Z,8100
2018-07-13T12:20:19.300Z,8208
2018-07-13T12:21:19.007Z,8200
2018-07-13T12:22:19.280Z,8184
2018-07-13T12:23:19.854Z,8124
2018-07-13T12:24:19.024Z,8052
2018-07-13T12:25:19.292Z,8036
2018-07-13T12:26:18.785Z,8148
2018-07-13T12:27:19.544Z,8304
2018-07-13T12:28:19.567Z,8404
2018-07-13T12:29:19.560Z,8416
2018-07-13T12:30:19.324Z,8328
2018-07-13T12:31:19.326Z,8284
2018-07-13T12:32:19.402Z,8236
2018-07-13T12:33:19.593Z,8092
2018-07-13T12:34:19.338Z,7932
2018-07-13T12:35:19.364Z,7788
2018-07-13T12:36:19.617Z,7672
2018-07-13T12:37:19.417Z,7620
2018-07-13T12:38:19.117Z,7580
2018-07-13T12:39:19.618Z,7532
2018-07-13T12:40:19.135Z,7384
2018-07-13T12:41:19.643Z,7424
2018-07-13T12:42:19.196Z,7412
2018-07-13T12:43:19.648Z,7476
2018-07-13T12:44:19.163Z,7512
2018-07-13T12:45:19.660Z,7500
2018-07-13T12:46:19.460Z,7500
2018-07-13T12:47:19.166Z,7464
2018-07-13T12:48:19.677Z,7432
2018-07-13T12:49:19.659Z,7440
2018-07-13T12:50:19.436Z,7452
2018-07-13T12:51:18.936Z,7428
2018-07-13T12:52:19.463Z,7316
2018-07-13T12:53:19.707Z,7208
2018-07-13T12:54:19.536Z,7136
2018-07-13T12:55:19.724Z,7120
2018-07-13T12:56:19.730Z,7064
2018-07-13T12:57:19.227Z,7028
2018-07-13T12:58:19.729Z,6988
2018-07-13T12:59:19.801Z,6960
2018-07-13T13:00:19.489Z,6964
2018-07-13T13:01:19.000Z,6964
2018-07-13T13:02:19.777Z,6968
2018-07-13T13:03:19.507Z,6968
2018-07-13T13:04:19.256Z,7024
2018-07-13T13:05:19.784Z,7036
2018-07-13T13:06:19.507Z,7092
2018-07-13T13:07:19.536Z,7220
2018-07-13T13:08:19.516Z,7308
2018-07-13T13:09:19.257Z,7372
2018-07-13T13:10:19.767Z,7380
2018-07-13T13:11:19.812Z,7428
2018-07-13T13:12:19.538Z,7176
2018-07-13T13:13:19.044Z,7268
2018-07-13T13:14:19.570Z,7448
2018-07-13T13:15:19.757Z,7452
2018-07-13T13:16:19.593Z,7476
2018-07-13T13:17:19.595Z,7480
2018-07-13T13:18:19.875Z,7512
2018-07-13T13:19:19.866Z,7528
2018-07-13T13:20:19.608Z,7420
2018-07-13T13:21:19.348Z,7284
2018-07-13T13:22:19.367Z,7252
2018-07-13T13:23:19.347Z,7296
2018-07-13T13:24:19.624Z,7232
2018-07-13T13:25:19.641Z,7048
2018-07-13T13:26:19.885Z,6904
2018-07-13T13:27:19.384Z,6808
2018-07-13T13:28:19.396Z,6716
2018-07-13T13:29:19.928Z,6640
2018-07-13T13:30:19.660Z,6600
2018-07-13T13:31:19.912Z,6516
2018-07-13T13:32:19.663Z,5428
2018-07-13T13:33:19.669Z,4764
2018-07-13T13:34:19.670Z,4772
2018-07-13T13:35:19.448Z,4756
2018-07-13T13:36:19.681Z,4740
2018-07-13T13:37:19.674Z,4756
2018-07-13T13:38:19.676Z,4908
2018-07-13T13:39:19.935Z,5836
2018-07-13T13:40:19.698Z,6488
2018-07-13T13:41:19.457Z,6516
2018-07-13T13:42:19.454Z,6452
2018-07-13T13:43:19.730Z,6688
2018-07-13T13:44:19.982Z,6768
2018-07-13T13:45:19.991Z,6808
2018-07-13T13:46:20.002Z,6820
2018-07-13T13:47:19.992Z,6828
2018-07-13T13:48:19.744Z,6836
2018-07-13T13:49:20.011Z,6900
2018-07-13T13:50:19.761Z,6920
2018-07-13T13:51:19.768Z,6932
2018-07-13T13:52:20.020Z,6948
2018-07-13T13:53:20.037Z,6960
2018-07-13T13:54:19.774Z,6920
2018-07-13T13:55:19.779Z,6884
2018-07-13T13:56:20.057Z,6808
2018-07-13T13:57:19.779Z,6764
2018-07-13T13:58:19.541Z,6768
2018-07-13T13:59:19.807Z,6756
2018-07-13T14:00:20.062Z,6764
2018-07-13T14:01:19.827Z,6724
2018-07-13T14:02:19.887Z,6640
2018-07-13T14:03:19.565Z,6588
2018-07-13T14:04:19.611Z,6540
2018-07-13T14:05:20.157Z,6508
2018-07-13T14:06:20.096Z,6476
2018-07-13T14:07:19.868Z,6432
2018-07-13T14:08:20.101Z,6392